Data for 11/25/2006

Time Sea-Level Adjusted Pressure Absolute Pressure Temperature Relative Humidity Dew Point   
(mb) (inHg) (mb) (inHg) (C) (F) (%) (C) (F)
00:05 1013 29.91 842 24.86 -2.1 28.3 52 -10.5 13
00:10 1013 29.91 842 24.86 -2.4 27.6 54 -10.4 13.2
00:15 1013 29.91 842 24.86 -2.6 27.4 56 -10.3 13.5
00:20 1013 29.91 842 24.86 -2.5 27.4 55 -10.3 13.5
00:25 1013 29.91 842 24.86 -2.4 27.7 54 -10.4 13.2
00:30 1013 29.91 842 24.86 -1.9 28.6 51 -10.6 12.9
00:35 1013 29.91 842 24.86 -1.2 29.9 47 -11.1 12.1
00:40 1013 29.91 842 24.86 -0.9 30.4 47 -10.8 12.6
00:45 1013 29.91 842 24.86 -1.3 29.7 48 -11 12.2
00:50 1013 29.91 842 24.86 -1.4 29.4 49 -10.8 12.5
00:55 1013 29.91 842 24.86 -1.5 29.4 48 -11 12.1
01:00 1013 29.91 842 24.86 -1.4 29.5 48 -11 12.3
01:05 1013 29.91 842 24.86 -1.3 29.6 48 -10.9 12.4
01:10 1013 29.91 842 24.86 -1.1 30 46 -11.3 11.7
01:15 1012 29.88 842 24.86 -0.9 30.4 46 -11.2 11.9
01:20 1012 29.88 842 24.86 -0.5 31 43 -11.6 11.2
01:25 1012 29.88 842 24.86 0 32 42 -11.5 11.3
01:30 1012 29.88 842 24.86 0.2 32.4 43 -11.1 12.1
01:35 1012 29.88 842 24.86 0.3 32.5 43 -10.8 12.6
01:40 1012 29.88 842 24.86 0.4 32.8 42 -11 12.3
01:45 1012 29.88 842 24.86 0.3 32.5 43 -11 12.2
01:50 1012 29.88 842 24.86 0.6 33 39 -11.7 10.9
01:55 1012 29.88 842 24.86 0.6 33 42 -11 12.3
02:00 1012 29.88 842 24.86 0.4 32.7 41 -11.4 11.4
02:05 1012 29.88 841 24.83 0.3 32.5 42 -11.3 11.7
02:10 1012 29.88 841 24.83 0.2 32.4 43 -11 12.2
02:15 1012 29.88 841 24.83 0.4 32.8 42 -11.2 11.9
02:20 1012 29.88 841 24.83 0.5 32.8 42 -11 12.1
02:25 1012 29.88 841 24.83 0.4 32.7 43 -10.9 12.4
02:30 1012 29.88 841 24.83 0.4 32.7 45 -10.2 13.6
02:35 1012 29.88 841 24.83 0.3 32.5 42 -11.1 12
02:40 1012 29.88 841 24.83 0.1 32.3 43 -11.1 12
02:45 1012 29.88 841 24.83 -0 32 43 -11 12.1
02:50 1012 29.88 841 24.83 -0.1 31.9 43 -11.2 11.8
02:55 1012 29.88 841 24.83 0.3 32.5 41 -11.4 11.5
03:00 1012 29.88 841 24.83 0.3 32.6 42 -11.2 11.9
03:05 1012 29.88 841 24.83 0.3 32.6 42 -11 12.1
03:10 1012 29.88 841 24.83 0.6 33.1 40 -11.5 11.3
03:15 1012 29.88 841 24.83 0.7 33.3 40 -11.5 11.2
03:20 1012 29.88 841 24.83 1 33.7 37 -12.2 10.1
03:25 1012 29.88 841 24.83 1.1 33.9 38 -11.7 10.9
03:30 1012 29.88 841 24.83 1 33.8 39 -11.6 11.1
03:35 1012 29.88 841 24.83 0.8 33.4 39 -11.7 10.9
03:40 1011 29.85 841 24.83 0.7 33.3 40 -11.4 11.5
03:45 1011 29.85 841 24.83 0.9 33.7 35 -12.8 9
03:50 1011 29.85 841 24.83 1.2 34.1 37 -12.1 10.1
03:55 1011 29.85 840 24.81 0.9 33.5 37 -12.2 10
04:00 1011 29.85 840 24.81 0.7 33.3 39 -11.7 10.9
04:05 1011 29.85 840 24.81 0.5 32.8 39 -11.8 10.7
04:10 1011 29.85 840 24.81 0.3 32.5 39 -12 10.4
04:15 1011 29.85 840 24.81 0.2 32.4 40 -12 10.4
04:20 1011 29.85 840 24.81 -0.1 31.8 42 -11.6 11.1
04:25 1011 29.85 840 24.81 -0.3 31.4 42 -11.9 10.6
04:30 1011 29.85 840 24.81 -0.2 31.6 41 -12 10.4
04:35 1011 29.85 840 24.81 -0.2 31.7 40 -12.1 10.3
04:40 1011 29.85 840 24.81 -0.1 31.8 40 -12 10.3
04:45 1010 29.83 840 24.81 0.1 32.2 39 -12.2 10.1
04:50 1010 29.83 840 24.81 0.3 32.6 37 -12.7 9.1
04:55 1010 29.83 840 24.81 0.5 32.9 39 -12 10.4
05:00 1010 29.83 840 24.81 0.3 32.6 38 -12.4 9.7
05:05 1010 29.83 840 24.81 0.4 32.6 37 -12.6 9.2
05:10 1010 29.83 840 24.81 0.6 33.1 37 -12.6 9.3
05:15 1010 29.83 839 24.78 0.8 33.4 36 -12.8 8.9
05:20 1010 29.83 839 24.78 0.9 33.6 34 -13.2 8.3
05:25 1010 29.83 839 24.78 1 33.9 35 -12.8 9
05:30 1010 29.83 839 24.78 1 33.8 35 -12.8 9
05:35 1010 29.83 839 24.78 1 33.7 35 -13 8.6
05:40 1010 29.83 839 24.78 1 33.7 35 -12.9 8.8
05:45 1010 29.83 839 24.78 1 33.8 34 -13 8.6
05:50 1010 29.83 839 24.78 1.2 34.2 33 -13.5 7.6
05:55 1010 29.83 839 24.78 1.3 34.3 33 -13.2 8.3
06:00 1010 29.83 839 24.78 1.2 34.1 33 -13.3 8
06:05 1010 29.83 839 24.78 1.1 34 34 -13.2 8.3
06:10 1010 29.83 839 24.78 1 33.7 36 -12.6 9.3
06:15 1010 29.83 839 24.78 0.6 33.2 37 -12.4 9.6
06:20 1010 29.83 839 24.78 0.6 33 39 -11.8 10.8
06:25 1010 29.83 839 24.78 0.4 32.7 38 -12.2 10
06:30 1010 29.83 839 24.78 0.6 33.1 37 -12.5 9.5
06:35 1010 29.83 839 24.78 0.7 33.2 39 -11.7 11
06:40 1010 29.83 839 24.78 0.3 32.6 42 -11.1 12
06:45 1010 29.83 839 24.78 0.3 32.5 42 -11.3 11.7
06:50 1010 29.83 839 24.78 0.4 32.7 41 -11.4 11.4
06:55 1010 29.83 839 24.78 0.6 33 42 -11 12.3
07:00 1010 29.83 839 24.78 0.5 32.9 41 -11.2 11.8
07:05 1010 29.83 839 24.78 0.6 33 41 -11.3 11.7
07:10 1010 29.83 839 24.78 0.6 33 40 -11.4 11.5
07:15 1010 29.83 839 24.78 0.7 33.2 40 -11.3 11.6
07:20 1010 29.83 839 24.78 0.6 33.1 41 -11.1 12
07:25 1010 29.83 839 24.78 0.6 33 41 -11.2 11.8
07:30 1010 29.83 839 24.78 0.5 33 42 -11 12.2
07:35 1010 29.83 839 24.78 0.4 32.7 41 -11.2 11.8
07:40 1010 29.83 839 24.78 0.3 32.6 43 -10.9 12.4
07:45 1010 29.83 839 24.78 -0.1 31.8 44 -10.8 12.5
07:50 1010 29.83 839 24.78 -0.4 31.3 46 -10.6 12.9
07:55 1010 29.83 839 24.78 -0.6 31 48 -10.3 13.5
08:00 1010 29.83 839 24.78 -0.9 30.3 49 -10.3 13.4
08:05 1010 29.83 839 24.78 -1.1 30 48 -10.8 12.6
08:10 1010 29.83 839 24.78 -0.7 30.8 45 -11.3 11.6
08:15 1010 29.83 839 24.78 -0.2 31.6 43 -11.4 11.4
08:20 1010 29.83 839 24.78 0.1 32.1 41 -11.7 10.9
08:25 1010 29.83 839 24.78 0.5 32.9 39 -12.1 10.3
08:30 1010 29.83 839 24.78 1.1 33.9 36 -12.3 9.8
08:35 1010 29.83 839 24.78 1.8 35.2 34 -12.5 9.4
08:40 1010 29.83 839 24.78 1.9 35.4 36 -11.8 10.7
08:45 1010 29.83 839 24.78 1.9 35.4 35 -12 10.4
08:50 1010 29.83 839 24.78 1.9 35.5 35 -11.9 10.5
08:55 1010 29.83 839 24.78 1.9 35.5 35 -11.9 10.6
09:00 1010 29.83 839 24.78 2.2 36 34 -11.9 10.5
09:05 1010 29.83 839 24.78 2.3 36.2 36 -11.5 11.4
09:10 1010 29.83 839 24.78 2.7 36.8 35 -11.3 11.6
09:15 1009 29.8 839 24.78 2.7 36.9 35 -11.3 11.7
09:20 1009 29.8 839 24.78 3 37.5 34 -11.3 11.6
09:25 1009 29.8 838 24.75 2.8 37 35 -11.2 11.8
09:30 1009 29.8 838 24.75 3.1 37.6 33 -11.7 11
09:35 1009 29.8 838 24.75 3.1 37.6 33 -11.7 11
09:40 1009 29.8 838 24.75 3 37.5 32 -12 10.5
09:45 1009 29.8 838 24.75 3 37.4 33 -11.8 10.7
09:50 1009 29.8 838 24.75 2.8 37.1 32 -12.1 10.2
09:55 1009 29.8 838 24.75 2.9 37.2 33 -12.1 10.3
10:00 1009 29.8 838 24.75 2.9 37.2 33 -12 10.3
10:05 1009 29.8 838 24.75 3 37.3 34 -11.4 11.5
10:10 1009 29.8 839 24.78 2.9 37.2 33 -11.9 10.7
10:15 1009 29.8 839 24.78 3 37.4 33 -11.8 10.8
10:20 1009 29.8 839 24.78 3.1 37.5 33 -11.7 11
10:25 1009 29.8 839 24.78 3.1 37.6 34 -11.1 11.9
10:30 1010 29.83 839 24.78 3.1 37.6 34 -11.1 12
10:35 1010 29.83 839 24.78 3.1 37.5 34 -11.5 11.3
10:40 1010 29.83 839 24.78 3.1 37.5 34 -11.2 11.8
10:45 1010 29.83 839 24.78 3 37.4 34 -11.2 11.8
10:50 1010 29.83 839 24.78 3 37.4 35 -11 12.3
10:55 1010 29.83 839 24.78 3 37.5 34 -11.4 11.6
11:00 1010 29.83 839 24.78 3.1 37.6 34 -11.5 11.4
11:05 1010 29.83 839 24.78 3 37.5 36 -10.6 13
11:10 1010 29.83 839 24.78 3 37.4 37 -10.3 13.5
11:15 1010 29.83 839 24.78 3.2 37.8 37 -10 14
11:20 1010 29.83 839 24.78 3.3 37.9 37 -10 14.1
11:25 1009 29.8 839 24.78 3.2 37.8 35 -11 12.2
11:30 1009 29.8 839 24.78 3.3 38 36 -10.4 13.3
11:35 1009 29.8 839 24.78 3.4 38.2 37 -9.9 14.2
11:40 1009 29.8 839 24.78 4 39.1 34 -10.5 13.1
11:45 1009 29.8 839 24.78 3.8 38.8 37 -9.5 15
11:50 1009 29.8 839 24.78 3.4 38.2 35 -10.6 13
11:55 1009 29.8 839 24.78 3.5 38.4 39 -9.2 15.4
12:00 1009 29.8 839 24.78 3.6 38.6 35 -10.6 13
12:05 1009 29.8 839 24.78 3.5 38.3 35 -10.7 12.7
12:10 1009 29.8 838 24.75 3.7 38.6 35 -10.3 13.5
12:15 1009 29.8 839 24.78 3.9 39 37 -9.4 15.1
12:20 1009 29.8 838 24.75 4.1 39.4 36 -9.7 14.6
12:25 1009 29.8 838 24.75 4.4 39.9 36 -9.3 15.2
12:30 1009 29.8 838 24.75 3.8 38.9 37 -9.5 14.9
12:35 1009 29.8 838 24.75 3.5 38.3 37 -10 14
12:40 1009 29.8 838 24.75 3.4 38.1 37 -10 14.1
12:45 1009 29.8 838 24.75 3.5 38.2 34 -11.1 12.1
12:50 1009 29.8 838 24.75 3.5 38.3 37 -9.9 14.3
12:55 1009 29.8 838 24.75 3.5 38.3 37 -10 14
13:00 1009 29.8 838 24.75 3.4 38.2 40 -9 15.9
13:05 1009 29.8 838 24.75 3.2 37.8 43 -8.1 17.4
13:10 1009 29.8 839 24.78 2.2 36 45 -8.6 16.6
13:15 1010 29.83 839 24.78 1.4 34.6 48 -8.4 16.9
13:20 1010 29.83 839 24.78 0.8 33.5 49 -8.8 16.2
13:25 1010 29.83 839 24.78 0.7 33.3 49 -8.8 16.2
13:30 1010 29.83 839 24.78 0.8 33.5 50 -8.3 17
13:35 1010 29.83 839 24.78 0.9 33.6 50 -8.3 17
13:40 1010 29.83 839 24.78 0.8 33.5 52 -8 17.6
13:45 1010 29.83 839 24.78 0.9 33.5 54 -7.3 18.8
13:50 1010 29.83 839 24.78 0.5 32.8 58 -6.9 19.6
13:55 1010 29.83 839 24.78 0.5 32.9 58 -6.9 19.6
14:00 1010 29.83 839 24.78 0.6 33 58 -6.7 20
14:05 1010 29.83 839 24.78 0.7 33.3 58 -6.6 20.1
14:10 1010 29.83 839 24.78 0.8 33.4 58 -6.6 20.2
14:15 1010 29.83 839 24.78 0.6 33.2 58 -6.7 19.9
14:20 1010 29.83 839 24.78 0.8 33.4 58 -6.5 20.3
14:25 1010 29.83 839 24.78 1 33.8 58 -6.4 20.6
14:30 1010 29.83 839 24.78 1 33.8 59 -6.1 20.9
14:35 1010 29.83 839 24.78 0.6 33.1 60 -6.2 20.8
14:40 1010 29.83 839 24.78 0.1 32.2 61 -6.4 20.4
14:45 1010 29.83 839 24.78 0.4 32.7 60 -6.4 20.4
14:50 1010 29.83 840 24.81 0.6 33.1 61 -6.1 21
14:55 1010 29.83 840 24.81 0.8 33.5 60 -6.1 21
15:00 1010 29.83 839 24.78 1 33.8 60 -5.9 21.3
15:05 1010 29.83 839 24.78 1.1 33.9 59 -6.2 20.9
15:10 1010 29.83 839 24.78 1 33.7 61 -5.7 21.7
15:15 1010 29.83 839 24.78 0.6 33.1 63 -5.7 21.8
15:20 1010 29.83 840 24.81 0.4 32.7 65 -5.4 22.3
15:25 1011 29.85 840 24.81 0.4 32.7 65 -5.4 22.2
15:30 1011 29.85 840 24.81 0.2 32.4 67 -5.1 22.8
15:35 1011 29.85 840 24.81 0 32.1 70 -4.8 23.3
15:40 1011 29.85 840 24.81 -0.2 31.7 74 -4.2 24.5
15:45 1011 29.85 840 24.81 -0.6 30.8 80 -3.7 25.3
15:50 1011 29.85 840 24.81 -1 30.2 83 -3.5 25.7
15:55 1011 29.85 840 24.81 -1.2 29.9 86 -3.3 26.1
16:00 1011 29.85 840 24.81 -1.2 29.8 86 -3.3 26.1
16:05 1011 29.85 840 24.81 -1.3 29.7 87 -3.2 26.3
16:10 1011 29.85 840 24.81 -1.2 29.8 87 -3.2 26.3
16:15 1011 29.85 840 24.81 -1.4 29.5 88 -3.2 26.3
16:20 1011 29.85 840 24.81 -1.6 29.1 88 -3.3 26.1
16:25 1011 29.85 840 24.81 -1.6 29 89 -3.3 26.1
16:30 1011 29.85 840 24.81 -1.7 28.9 89 -3.2 26.2
16:35 1011 29.85 840 24.81 -1.8 28.8 90 -3.3 26.1
16:40 1011 29.85 841 24.83 -1.8 28.7 90 -3.3 26.1
16:45 1011 29.85 841 24.83 -1.8 28.8 90 -3.3 26.1
16:50 1011 29.85 841 24.83 -1.8 28.7 89 -3.4 26
16:55 1011 29.85 841 24.83 -2 28.4 90 -3.3 26
17:00 1012 29.88 841 24.83 -2.2 28.1 91 -3.4 25.8
17:05 1012 29.88 841 24.83 -2.3 27.9 91 -3.5 25.7
17:10 1012 29.88 841 24.83 -2.3 27.9 91 -3.5 25.6
17:15 1012 29.88 841 24.83 -2.4 27.8 91 -3.7 25.4
17:20 1012 29.88 841 24.83 -2.5 27.5 91 -3.7 25.3
17:25 1012 29.88 841 24.83 -2.5 27.5 91 -3.7 25.3
17:30 1012 29.88 841 24.83 -2.5 27.5 92 -3.7 25.4
17:35 1012 29.88 841 24.83 -2.5 27.6 91 -3.7 25.3
17:40 1012 29.88 841 24.83 -2.5 27.5 91 -3.8 25.2
17:45 1012 29.88 841 24.83 -2.8 27 92 -3.9 24.9
17:50 1012 29.88 841 24.83 -2.9 26.7 92 -4.1 24.7
17:55 1012 29.88 841 24.83 -3.1 26.4 93 -4.1 24.6
18:00 1012 29.88 841 24.83 -3.3 26.1 93 -4.2 24.5
18:05 1012 29.88 841 24.83 -3.4 25.8 93 -4.3 24.2
18:10 1012 29.88 841 24.83 -3.5 25.8 94 -4.4 24.1
18:15 1012 29.88 841 24.83 -3.5 25.7 94 -4.3 24.3
18:20 1012 29.88 841 24.83 -3.5 25.7 93 -4.5 24
18:25 1012 29.88 841 24.83 -3.7 25.3 93 -4.6 23.7
18:30 1012 29.88 841 24.83 -3.9 24.9 93 -4.9 23.2
18:35 1012 29.88 842 24.86 -4.1 24.6 92 -5.2 22.6
18:40 1012 29.88 842 24.86 -4.6 23.6 93 -5.6 22
18:45 1012 29.88 842 24.86 -5.1 22.9 95 -5.8 21.6
18:50 1012 29.88 842 24.86 -5.1 22.8 95 -5.8 21.6
18:55 1012 29.88 842 24.86 -5.2 22.7 96 -5.7 21.7
19:00 1012 29.88 842 24.86 -5 22.9 96 -5.6 21.9
19:05 1013 29.91 842 24.86 -4.8 23.3 96 -5.4 22.3
19:10 1013 29.91 842 24.86 -4.8 23.3 95 -5.5 22.1
19:15 1013 29.91 842 24.86 -4.8 23.4 95 -5.5 22.2
19:20 1013 29.91 842 24.86 -4.7 23.6 95 -5.4 22.4
19:25 1013 29.91 842 24.86 -4.7 23.6 95 -5.4 22.3
19:30 1013 29.91 842 24.86 -4.6 23.7 94 -5.4 22.4
19:35 1012 29.88 842 24.86 -4.7 23.5 94 -5.5 22.1
19:40 1013 29.91 842 24.86 -4.8 23.4 94 -5.5 22
19:45 1013 29.91 842 24.86 -4.8 23.3 94 -5.6 21.9
19:50 1013 29.91 842 24.86 -4.9 23.2 94 -5.7 21.8
19:55 1013 29.91 842 24.86 -5.2 22.7 95 -5.9 21.4
20:00 1013 29.91 842 24.86 -5.2 22.6 95 -5.9 21.5
20:05 1013 29.91 842 24.86 -5.2 22.7 95 -5.9 21.4
20:10 1013 29.91 842 24.86 -5.4 22.4 94 -6.1 21
20:15 1013 29.91 842 24.86 -5.4 22.3 94 -6.2 20.9
20:20 1013 29.91 842 24.86 -5.5 22.2 93 -6.4 20.5
20:25 1013 29.91 842 24.86 -5.9 21.4 94 -6.7 19.9
20:30 1013 29.91 842 24.86 -6.2 20.8 94 -7 19.5
20:35 1013 29.91 842 24.86 -6.4 20.5 95 -7 19.3
20:40 1013 29.91 842 24.86 -6.4 20.4 95 -7.1 19.2
20:45 1013 29.91 842 24.86 -6.5 20.4 96 -7 19.3
20:50 1013 29.91 842 24.86 -6.3 20.6 96 -6.9 19.6
20:55 1013 29.91 842 24.86 -6.3 20.7 95 -6.9 19.6
21:00 1013 29.91 842 24.86 -6.2 20.8 96 -6.8 19.7
21:05 1013 29.91 842 24.86 -6.1 20.9 95 -6.8 19.8
21:10 1013 29.91 842 24.86 -6.1 21 95 -6.7 19.9
21:15 1013 29.91 842 24.86 -6 21.2 95 -6.6 20.1
21:20 1013 29.91 842 24.86 -5.8 21.5 95 -6.5 20.4
21:25 1013 29.91 842 24.86 -5.9 21.4 95 -6.5 20.2
21:30 1013 29.91 842 24.86 -5.9 21.4 95 -6.6 20.1
21:35 1013 29.91 842 24.86 -5.9 21.3 94 -6.7 20
21:40 1013 29.91 842 24.86 -6 21.2 94 -6.8 19.7
21:45 1013 29.91 842 24.86 -6.1 21.1 93 -7 19.5
21:50 1013 29.91 842 24.86 -6.1 21 93 -7.1 19.3
21:55 1013 29.91 842 24.86 -6.2 20.8 94 -7.1 19.3
22:00 1013 29.91 842 24.86 -6.3 20.7 94 -7.1 19.3
22:05 1013 29.91 843 24.89 -6.3 20.6 95 -7 19.4
22:10 1013 29.91 843 24.89 -6.4 20.5 95 -7.1 19.2
22:15 1014 29.94 843 24.89 -6.5 20.3 95 -7.2 19.1
22:20 1014 29.94 843 24.89 -6.5 20.2 95 -7.3 18.9
22:25 1014 29.94 843 24.89 -6.6 20.1 95 -7.3 18.8
22:30 1014 29.94 843 24.89 -6.6 20.1 95 -7.3 18.8
22:35 1014 29.94 843 24.89 -6.6 20 95 -7.4 18.8
22:40 1014 29.94 843 24.89 -6.6 20 95 -7.3 18.8
22:45 1014 29.94 843 24.89 -6.7 20 95 -7.4 18.7
22:50 1014 29.94 843 24.89 -6.7 19.9 95 -7.4 18.7
22:55 1014 29.94 843 24.89 -6.8 19.8 95 -7.5 18.6
23:00 1014 29.94 843 24.89 -6.8 19.8 95 -7.5 18.6
23:05 1013 29.91 843 24.89 -6.8 19.8 95 -7.4 18.6
23:10 1013 29.91 843 24.89 -6.8 19.8 95 -7.5 18.5
23:15 1013 29.91 843 24.89 -6.8 19.7 95 -7.5 18.4
23:20 1013 29.91 843 24.89 -6.8 19.7 95 -7.5 18.4
23:25 1013 29.91 843 24.89 -6.8 19.7 95 -7.6 18.4
23:30 1013 29.91 843 24.89 -6.8 19.7 95 -7.5 18.5
23:35 1013 29.91 843 24.89 -6.8 19.8 95 -7.5 18.6
23:40 1013 29.91 843 24.89 -6.7 19.9 95 -7.4 18.6
23:45 1013 29.91 843 24.89 -6.7 19.9 95 -7.4 18.7
23:50 1013 29.91 843 24.89 -6.7 19.9 95 -7.4 18.6
23:55 1013 29.91 843 24.89 -6.7 19.9 95 -7.5 18.6
24:00 1013 29.91 843 24.89 -6.7 19.9 94 -7.5 18.5